createdAt,value
2022-08-03T00:00:21.362Z,-157
2022-08-03T00:01:27.626Z,-157
2022-08-03T00:02:33.901Z,-157
2022-08-03T00:03:40.174Z,-157
2022-08-03T00:04:46.455Z,-157
2022-08-03T00:05:51.749Z,-157
2022-08-03T00:06:58.020Z,-158
2022-08-03T00:08:04.299Z,-156
2022-08-03T00:09:10.573Z,-157
2022-08-03T00:10:16.834Z,-157
2022-08-03T00:11:23.107Z,-158
2022-08-03T00:12:29.380Z,-157
2022-08-03T00:13:35.652Z,-157
2022-08-03T00:14:41.920Z,-157
2022-08-03T00:15:48.202Z,-156
2022-08-03T00:16:54.472Z,-157
2022-08-03T00:18:00.739Z,-156
2022-08-03T00:19:07.033Z,-157
2022-08-03T00:20:13.299Z,-156
2022-08-03T00:21:18.604Z,-156
2022-08-03T00:22:24.853Z,-156
2022-08-03T00:23:31.127Z,-156
2022-08-03T00:24:37.401Z,-156
2022-08-03T00:25:43.668Z,-156
2022-08-03T00:26:49.934Z,-156
2022-08-03T00:27:56.205Z,-156
2022-08-03T00:29:02.480Z,-156
2022-08-03T00:30:08.750Z,-156
2022-08-03T00:31:15.026Z,-156
2022-08-03T00:32:21.294Z,-156
2022-08-03T00:33:27.579Z,-155
2022-08-03T00:34:33.843Z,-156
2022-08-03T00:35:39.150Z,-156
2022-08-03T00:36:44.435Z,-156
2022-08-03T00:37:50.704Z,-156
2022-08-03T00:38:56.973Z,-156
2022-08-03T00:40:03.247Z,-156
2022-08-03T00:41:09.521Z,-155
2022-08-03T00:42:15.792Z,-154
2022-08-03T00:43:22.060Z,-155
2022-08-03T00:44:28.334Z,-155
2022-08-03T00:45:34.613Z,-155
2022-08-03T00:46:40.882Z,-156
2022-08-03T00:47:47.150Z,-156
2022-08-03T00:48:53.422Z,-155
2022-08-03T00:49:59.700Z,-155
2022-08-03T00:51:04.988Z,-155
2022-08-03T00:52:10.281Z,-155
2022-08-03T00:53:15.576Z,-155
2022-08-03T00:54:21.840Z,-155
2022-08-03T00:55:28.115Z,-156
2022-08-03T00:56:34.387Z,-156
2022-08-03T00:57:40.658Z,-156
2022-08-03T00:58:46.930Z,-155
2022-08-03T00:59:53.204Z,-155
2022-08-03T01:00:59.475Z,-156
2022-08-03T01:02:05.760Z,-154
2022-08-03T01:03:12.020Z,-155
2022-08-03T01:04:18.289Z,-155
2022-08-03T01:05:24.578Z,-155
2022-08-03T01:06:30.837Z,-155
2022-08-03T01:07:36.125Z,-155
2022-08-03T01:08:42.397Z,-155
2022-08-03T01:09:48.677Z,-156
2022-08-03T01:10:54.953Z,-155
2022-08-03T01:12:01.218Z,-153
2022-08-03T01:13:07.485Z,-155
2022-08-03T01:14:13.780Z,-156
2022-08-03T01:15:20.053Z,-156
2022-08-03T01:16:26.305Z,-155
2022-08-03T01:17:32.587Z,-155
2022-08-03T01:18:38.860Z,-153
2022-08-03T01:19:45.128Z,-155
2022-08-03T01:20:51.400Z,-155
2022-08-03T01:21:56.702Z,-153
2022-08-03T01:23:02.973Z,-154
2022-08-03T01:24:09.225Z,-155
2022-08-03T01:25:15.499Z,-153
2022-08-03T01:26:21.767Z,-155
2022-08-03T01:27:28.042Z,-155
2022-08-03T01:28:34.311Z,-155
2022-08-03T01:29:40.588Z,-155
2022-08-03T01:30:46.855Z,-154
2022-08-03T01:31:53.133Z,-153
2022-08-03T01:32:59.417Z,-153
2022-08-03T01:34:05.674Z,-152
2022-08-03T01:35:11.952Z,-155
2022-08-03T01:36:17.232Z,-155
2022-08-03T01:37:23.506Z,-153
2022-08-03T01:38:29.790Z,-154
2022-08-03T01:39:36.053Z,-154
2022-08-03T01:40:42.328Z,-155
2022-08-03T01:41:47.625Z,-154
2022-08-03T01:42:53.895Z,-153
2022-08-03T01:43:59.188Z,-153
2022-08-03T01:45:05.464Z,-154
2022-08-03T01:46:11.732Z,-154
2022-08-03T01:47:17.996Z,-153
2022-08-03T01:48:24.271Z,-153
2022-08-03T01:49:30.552Z,-154
2022-08-03T01:50:36.818Z,-154
2022-08-03T01:51:43.088Z,-153
2022-08-03T01:52:49.354Z,-153
2022-08-03T01:53:55.639Z,-154
2022-08-03T01:55:01.910Z,-153
2022-08-03T01:56:08.179Z,-154
2022-08-03T01:57:14.454Z,-153
2022-08-03T01:58:19.763Z,-153
2022-08-03T01:59:25.050Z,-154
2022-08-03T02:00:31.366Z,-153
2022-08-03T02:01:37.588Z,-154
2022-08-03T02:02:43.849Z,-153
2022-08-03T02:03:50.120Z,-153
2022-08-03T02:04:56.399Z,-151
2022-08-03T02:06:02.671Z,-153
2022-08-03T02:07:08.943Z,-153
2022-08-03T02:08:15.226Z,-153
2022-08-03T02:09:21.490Z,-153
2022-08-03T02:10:27.774Z,-153
2022-08-03T02:11:34.036Z,-153
2022-08-03T02:12:40.294Z,-152
2022-08-03T02:13:45.582Z,-153
2022-08-03T02:14:51.869Z,-153
2022-08-03T02:15:58.139Z,-153
2022-08-03T02:17:04.428Z,-153
2022-08-03T02:18:10.678Z,-154
2022-08-03T02:19:16.970Z,-152
2022-08-03T02:20:23.234Z,-151
2022-08-03T02:21:29.497Z,-152
2022-08-03T02:22:35.765Z,-153
2022-08-03T02:23:42.036Z,-153
2022-08-03T02:24:48.329Z,-152
2022-08-03T02:25:54.581Z,-153
2022-08-03T02:27:00.864Z,-153
2022-08-03T02:28:06.143Z,-153
2022-08-03T02:29:12.417Z,-153
2022-08-03T02:30:18.686Z,-153
2022-08-03T02:31:24.963Z,-153
2022-08-03T02:32:31.229Z,-153
2022-08-03T02:33:37.499Z,-152
2022-08-03T02:34:43.802Z,-153
2022-08-03T02:35:50.051Z,-153
2022-08-03T02:36:56.316Z,-153
2022-08-03T02:38:02.601Z,-152
2022-08-03T02:39:08.860Z,-153
2022-08-03T02:40:15.133Z,-153
2022-08-03T02:41:21.407Z,-152
2022-08-03T02:42:26.709Z,-153
2022-08-03T02:43:32.965Z,-152
2022-08-03T02:44:39.245Z,-153
2022-08-03T02:45:45.517Z,-152
2022-08-03T02:46:51.783Z,-153
2022-08-03T02:47:58.056Z,-152
2022-08-03T02:49:04.330Z,-152
2022-08-03T02:50:10.599Z,-152
2022-08-03T02:51:16.871Z,-153
2022-08-03T02:52:23.144Z,-152
2022-08-03T02:53:29.412Z,-153
2022-08-03T02:54:35.688Z,-153
2022-08-03T02:55:41.957Z,-153
2022-08-03T02:56:47.253Z,-153
2022-08-03T02:57:53.528Z,-153
2022-08-03T02:58:59.790Z,-153
2022-08-03T03:00:06.062Z,-151
2022-08-03T03:01:12.335Z,-153
2022-08-03T03:02:18.615Z,-153
2022-08-03T03:03:24.877Z,-153
2022-08-03T03:04:31.146Z,-150
2022-08-03T03:05:37.444Z,-151
2022-08-03T03:06:43.717Z,-152
2022-08-03T03:07:49.970Z,-152
2022-08-03T03:08:56.244Z,-151
2022-08-03T03:10:02.517Z,-152
2022-08-03T03:11:07.799Z,-152
2022-08-03T03:12:14.081Z,-152
2022-08-03T03:13:20.342Z,-152
2022-08-03T03:14:26.613Z,-151
2022-08-03T03:15:32.891Z,-153
2022-08-03T03:16:39.161Z,-152
2022-08-03T03:17:45.430Z,-151
2022-08-03T03:18:51.709Z,-151
2022-08-03T03:19:57.972Z,-150
2022-08-03T03:21:03.281Z,-151
2022-08-03T03:22:08.563Z,-152
2022-08-03T03:23:14.842Z,-150
2022-08-03T03:24:21.116Z,-151
2022-08-03T03:25:27.382Z,-150
2022-08-03T03:26:33.653Z,-152
2022-08-03T03:27:39.922Z,-150
2022-08-03T03:28:46.207Z,-151
2022-08-03T03:29:52.466Z,-150
2022-08-03T03:30:57.766Z,-150
2022-08-03T03:32:03.062Z,-150
2022-08-03T03:33:09.338Z,-150
2022-08-03T03:34:15.600Z,-151
2022-08-03T03:35:21.866Z,-150
2022-08-03T03:36:28.152Z,-150
2022-08-03T03:37:34.419Z,-150
2022-08-03T03:38:40.694Z,-150
2022-08-03T03:39:46.967Z,-151
2022-08-03T03:40:53.230Z,-149
2022-08-03T03:41:59.507Z,-150
2022-08-03T03:43:05.790Z,-150
2022-08-03T03:44:12.054Z,-150
2022-08-03T03:45:18.319Z,-150
2022-08-03T03:46:23.611Z,-150
2022-08-03T03:47:28.901Z,-150
2022-08-03T03:48:35.176Z,-150
2022-08-03T03:49:41.454Z,-151
2022-08-03T03:50:47.726Z,-150
2022-08-03T03:51:54.015Z,-150
2022-08-03T03:53:00.272Z,-150
2022-08-03T03:54:06.541Z,-151
2022-08-03T03:55:12.813Z,-151
2022-08-03T03:56:19.091Z,-150
2022-08-03T03:57:25.367Z,-151
2022-08-03T03:58:31.622Z,-150
2022-08-03T03:59:37.907Z,-153
2022-08-03T04:00:44.173Z,-150
2022-08-03T04:01:49.454Z,-150
2022-08-03T04:02:55.738Z,-150
2022-08-03T04:04:02.003Z,-150
2022-08-03T04:05:08.287Z,-150
2022-08-03T04:06:14.544Z,-150
2022-08-03T04:07:20.827Z,-150
2022-08-03T04:08:27.099Z,-152
2022-08-03T04:09:33.386Z,-150
2022-08-03T04:10:39.646Z,-150
2022-08-03T04:11:45.911Z,-149
2022-08-03T04:12:52.178Z,-150
2022-08-03T04:13:58.450Z,-150
2022-08-03T04:15:04.723Z,-149
2022-08-03T04:16:10.016Z,-150
2022-08-03T04:17:16.283Z,-149
2022-08-03T04:18:22.553Z,-148
2022-08-03T04:19:28.835Z,-148
2022-08-03T04:20:35.097Z,-150
2022-08-03T04:21:41.371Z,-148
2022-08-03T04:22:47.650Z,-149
2022-08-03T04:23:53.916Z,-150
2022-08-03T04:25:00.198Z,-149
2022-08-03T04:26:06.463Z,-149
2022-08-03T04:27:12.734Z,-149
2022-08-03T04:28:19.001Z,-149
2022-08-03T04:29:25.298Z,-150
2022-08-03T04:30:30.568Z,-150
2022-08-03T04:31:36.832Z,-150
2022-08-03T04:32:43.113Z,-150
2022-08-03T04:33:49.383Z,-149
2022-08-03T04:34:55.663Z,-150
2022-08-03T04:36:01.945Z,-149
2022-08-03T04:37:08.202Z,-150
2022-08-03T04:38:14.475Z,-150
2022-08-03T04:39:20.749Z,-150
2022-08-03T04:40:27.019Z,-150
2022-08-03T04:41:33.283Z,-149
2022-08-03T04:42:39.555Z,-150
2022-08-03T04:43:45.833Z,-149
2022-08-03T04:44:51.120Z,-150
2022-08-03T04:45:57.404Z,-149
2022-08-03T04:47:03.673Z,-149
2022-08-03T04:48:09.932Z,-149
2022-08-03T04:49:16.210Z,-150
2022-08-03T04:50:22.488Z,-149
2022-08-03T04:51:28.759Z,-149
2022-08-03T04:52:35.037Z,-149
2022-08-03T04:53:41.322Z,-146
2022-08-03T04:54:47.570Z,-150
2022-08-03T04:55:53.839Z,-149
2022-08-03T04:57:00.114Z,-148
2022-08-03T04:58:06.383Z,-148
2022-08-03T04:59:11.679Z,-149
2022-08-03T05:00:17.950Z,-149
2022-08-03T05:01:24.222Z,-149
2022-08-03T05:02:30.499Z,-149
2022-08-03T05:03:36.766Z,-149
2022-08-03T05:04:43.049Z,-147
2022-08-03T05:05:49.307Z,-149
2022-08-03T05:06:55.576Z,-148
2022-08-03T05:08:01.849Z,-148
2022-08-03T05:09:08.120Z,-149
2022-08-03T05:10:14.400Z,-148
2022-08-03T05:11:20.663Z,-149
2022-08-03T05:12:26.946Z,-147
2022-08-03T05:13:32.228Z,-147
2022-08-03T05:14:38.504Z,-147
2022-08-03T05:15:44.772Z,-147
2022-08-03T05:16:51.048Z,-146
2022-08-03T05:17:57.318Z,-148
2022-08-03T05:19:03.606Z,-148
2022-08-03T05:20:09.864Z,-149
2022-08-03T05:21:16.134Z,-147
2022-08-03T05:22:22.409Z,-147
2022-08-03T05:23:28.685Z,-147
2022-08-03T05:25:41.223Z,-148
2022-08-03T05:26:47.502Z,-148
2022-08-03T05:27:52.779Z,-146
2022-08-03T05:28:59.066Z,-147
2022-08-03T05:30:05.329Z,-147
2022-08-03T05:31:11.598Z,-146
2022-08-03T05:32:17.872Z,-147
2022-08-03T05:33:24.142Z,-146
2022-08-03T05:34:30.418Z,-147
2022-08-03T05:35:36.707Z,-146
2022-08-03T05:36:42.971Z,-147
2022-08-03T05:37:49.230Z,-146
2022-08-03T05:38:55.508Z,-147
2022-08-03T05:40:01.788Z,-146
2022-08-03T05:41:08.055Z,-146
2022-08-03T05:42:13.339Z,-146
2022-08-03T05:43:19.614Z,-146
2022-08-03T05:44:25.880Z,-146
2022-08-03T05:45:32.153Z,-145
2022-08-03T05:46:38.435Z,-146
2022-08-03T05:47:44.696Z,-146
2022-08-03T05:48:50.974Z,-146
2022-08-03T05:49:57.250Z,-146
2022-08-03T05:51:03.515Z,-148
2022-08-03T05:52:09.788Z,-146
2022-08-03T05:53:16.059Z,-146
2022-08-03T05:54:22.344Z,-147
2022-08-03T05:55:28.623Z,-146
2022-08-03T05:56:33.893Z,-146
2022-08-03T05:57:40.197Z,-146
2022-08-03T05:58:46.441Z,-144
2022-08-03T05:59:52.721Z,-146
2022-08-03T06:00:59.006Z,-146
2022-08-03T06:02:05.255Z,-145
2022-08-03T06:03:11.522Z,-146
2022-08-03T06:04:17.805Z,-146
2022-08-03T06:05:24.069Z,-146
2022-08-03T06:06:29.364Z,-146
2022-08-03T06:07:34.657Z,-145
2022-08-03T06:08:40.944Z,-147
2022-08-03T06:09:47.199Z,-145
2022-08-03T06:10:53.472Z,-146
2022-08-03T06:11:59.751Z,-146
2022-08-03T06:13:06.024Z,-145
2022-08-03T06:14:12.300Z,-145
2022-08-03T06:15:18.591Z,-146
2022-08-03T06:16:24.836Z,-146
2022-08-03T06:17:31.113Z,-145
2022-08-03T06:18:37.388Z,-145
2022-08-03T06:19:42.685Z,-146
2022-08-03T06:20:48.955Z,-145
2022-08-03T06:21:54.275Z,-146
2022-08-03T06:23:00.508Z,-146
2022-08-03T06:24:06.789Z,-145
2022-08-03T06:25:13.089Z,-146
2022-08-03T06:26:19.352Z,-146
2022-08-03T06:27:25.602Z,-146
2022-08-03T06:28:31.876Z,-146
2022-08-03T06:29:38.192Z,-146
2022-08-03T06:30:44.433Z,-145
2022-08-03T06:31:50.693Z,-145
2022-08-03T06:32:56.969Z,-146
2022-08-03T06:34:03.242Z,-149
2022-08-03T06:35:09.510Z,-147
2022-08-03T06:36:14.803Z,-146
2022-08-03T06:37:21.065Z,-148
2022-08-03T06:38:27.344Z,-147
2022-08-03T06:39:33.636Z,-147
2022-08-03T06:40:39.886Z,-147
2022-08-03T06:41:46.160Z,-148
2022-08-03T06:42:52.440Z,-147
2022-08-03T06:43:58.703Z,-146
2022-08-03T06:45:04.977Z,-147
2022-08-03T06:46:11.251Z,-147
2022-08-03T06:47:17.517Z,-148
2022-08-03T06:48:23.808Z,-149
2022-08-03T06:49:30.073Z,-147
2022-08-03T06:50:35.360Z,-149
2022-08-03T06:51:41.641Z,-147
2022-08-03T06:52:47.942Z,-148
2022-08-03T06:53:54.176Z,-148
2022-08-03T06:55:00.451Z,-147
2022-08-03T06:56:06.737Z,-149
2022-08-03T06:57:12.999Z,-149
2022-08-03T06:58:19.271Z,-149
2022-08-03T06:59:25.541Z,-149
2022-08-03T07:00:31.816Z,-150
2022-08-03T07:01:38.082Z,-148
2022-08-03T07:02:44.360Z,-149
2022-08-03T07:03:50.634Z,-147
2022-08-03T07:04:56.905Z,-149
2022-08-03T07:06:02.197Z,-150
2022-08-03T07:07:08.465Z,-150
2022-08-03T07:08:14.736Z,-150
2022-08-03T07:09:21.016Z,-150
2022-08-03T07:10:27.296Z,-150
2022-08-03T07:11:33.557Z,-150
2022-08-03T07:12:39.845Z,-150
2022-08-03T07:13:46.103Z,-149
2022-08-03T07:14:52.385Z,-150
2022-08-03T07:15:58.644Z,-150
2022-08-03T07:17:04.918Z,-150
2022-08-03T07:18:11.189Z,-151
2022-08-03T07:19:17.460Z,-150
2022-08-03T07:20:22.756Z,-150
2022-08-03T07:21:29.043Z,-150
2022-08-03T07:22:35.317Z,-151
2022-08-03T07:23:41.575Z,-150
2022-08-03T07:24:47.836Z,-151
2022-08-03T07:25:54.129Z,-150
2022-08-03T07:27:00.414Z,-150
2022-08-03T07:28:06.662Z,-152
2022-08-03T07:29:11.958Z,-150
2022-08-03T07:30:18.225Z,-150
2022-08-03T07:31:24.505Z,-151
2022-08-03T07:32:30.801Z,-151
2022-08-03T07:33:37.045Z,-153
2022-08-03T07:34:43.334Z,-153
2022-08-03T07:35:49.595Z,-152
2022-08-03T07:36:55.871Z,-153
2022-08-03T07:38:02.135Z,-153
2022-08-03T07:39:08.406Z,-155
2022-08-03T07:40:14.681Z,-153
2022-08-03T07:41:20.949Z,-153
2022-08-03T07:42:27.220Z,-153
2022-08-03T07:43:32.538Z,-153
2022-08-03T07:44:38.784Z,-150
2022-08-03T07:45:45.060Z,-153
2022-08-03T07:46:51.323Z,-153
2022-08-03T07:47:57.599Z,-153
2022-08-03T07:49:03.868Z,-153
2022-08-03T07:50:10.150Z,-153
2022-08-03T07:51:16.417Z,-153
2022-08-03T07:52:22.688Z,-153
2022-08-03T07:53:28.982Z,-153
2022-08-03T07:54:35.240Z,-154
2022-08-03T07:55:41.507Z,-153
2022-08-03T07:56:47.787Z,-153
2022-08-03T07:57:53.070Z,-154
2022-08-03T07:58:59.362Z,-154
2022-08-03T08:00:05.622Z,-153
2022-08-03T08:01:11.891Z,-156
2022-08-03T08:02:18.165Z,-155
2022-08-03T08:03:24.450Z,-154
2022-08-03T08:04:30.734Z,-154
2022-08-03T08:05:36.978Z,-154
2022-08-03T08:06:43.265Z,-155
2022-08-03T08:07:49.521Z,-156
2022-08-03T08:08:55.795Z,-154
2022-08-03T08:10:02.074Z,-156
2022-08-03T08:11:08.346Z,-156
2022-08-03T08:12:13.633Z,-156
2022-08-03T08:13:19.899Z,-157
2022-08-03T08:14:26.177Z,-157
2022-08-03T08:15:32.460Z,-157
2022-08-03T08:16:38.719Z,-156
2022-08-03T08:17:44.989Z,-157
2022-08-03T08:18:51.262Z,-157
2022-08-03T08:19:57.538Z,-158
2022-08-03T08:21:03.823Z,-157
2022-08-03T08:22:10.132Z,-159
2022-08-03T08:23:16.352Z,-157
2022-08-03T08:24:22.619Z,-159
2022-08-03T08:25:28.899Z,-159
2022-08-03T08:26:34.191Z,-159
2022-08-03T08:27:40.480Z,-159
2022-08-03T08:28:46.732Z,-159
2022-08-03T08:29:52.997Z,-158
2022-08-03T08:30:59.277Z,-162
2022-08-03T08:32:05.570Z,-162
2022-08-03T08:33:11.815Z,-162
2022-08-03T08:34:18.099Z,-162
2022-08-03T08:35:23.392Z,-162
2022-08-03T08:36:28.687Z,-161
2022-08-03T08:37:34.968Z,-162
2022-08-03T08:38:41.221Z,-162
2022-08-03T08:39:47.504Z,-162
2022-08-03T08:40:53.783Z,-162
2022-08-03T08:42:00.037Z,-162
2022-08-03T08:43:06.318Z,-163
2022-08-03T08:44:12.592Z,-163
2022-08-03T08:45:18.851Z,-163
2022-08-03T08:46:25.138Z,-164
2022-08-03T08:47:31.391Z,-163
2022-08-03T08:48:37.666Z,-164
2022-08-03T08:49:43.937Z,-164
2022-08-03T08:50:49.227Z,-164
2022-08-03T08:51:54.534Z,-164
2022-08-03T08:53:00.806Z,-165
2022-08-03T08:54:06.094Z,-165
2022-08-03T08:55:12.363Z,-165
2022-08-03T08:56:18.627Z,-165
2022-08-03T08:57:24.896Z,-167
2022-08-03T08:58:31.187Z,-167
2022-08-03T08:59:37.449Z,-165
2022-08-03T09:00:43.718Z,-166
2022-08-03T09:01:49.987Z,-168
2022-08-03T09:02:56.279Z,-168
2022-08-03T09:04:02.560Z,-165
2022-08-03T09:05:08.822Z,-166
2022-08-03T09:06:15.080Z,-167
2022-08-03T09:07:21.354Z,-167
2022-08-03T09:08:26.650Z,-167
2022-08-03T09:09:32.954Z,-167
2022-08-03T09:10:39.201Z,-168
2022-08-03T09:11:45.464Z,-168
2022-08-03T09:12:51.730Z,-168
2022-08-03T09:13:58.005Z,-167
2022-08-03T09:15:04.271Z,-169
2022-08-03T09:16:10.542Z,-167
2022-08-03T09:17:16.815Z,-166
2022-08-03T09:18:23.091Z,-168
2022-08-03T09:19:29.365Z,-166
2022-08-03T09:20:35.635Z,-167
2022-08-03T09:21:41.913Z,-166
2022-08-03T09:22:47.203Z,-165
2022-08-03T09:23:53.473Z,-165
2022-08-03T09:24:59.736Z,-163
2022-08-03T09:26:06.008Z,-164
2022-08-03T09:27:12.300Z,-165
2022-08-03T09:28:18.560Z,-164
2022-08-03T09:29:24.831Z,-164
2022-08-03T09:30:31.097Z,-164
2022-08-03T09:31:37.376Z,-165
2022-08-03T09:32:43.646Z,-163
2022-08-03T09:33:49.914Z,-163
2022-08-03T09:34:56.191Z,-163
2022-08-03T09:36:02.463Z,-163
2022-08-03T09:37:07.784Z,-163
2022-08-03T09:38:14.024Z,-163
2022-08-03T09:39:20.294Z,-163
2022-08-03T09:40:26.568Z,-163
2022-08-03T09:41:32.838Z,-165
2022-08-03T09:42:39.135Z,-164
2022-08-03T09:43:45.392Z,-163
2022-08-03T09:44:51.648Z,-164
2022-08-03T09:45:57.926Z,-164
2022-08-03T09:47:04.231Z,-165
2022-08-03T09:48:10.479Z,-164
2022-08-03T09:49:16.740Z,-165
2022-08-03T09:50:23.018Z,-165
2022-08-03T09:51:28.304Z,-165
2022-08-03T09:52:34.609Z,-165
2022-08-03T09:53:40.851Z,-166
2022-08-03T09:54:47.126Z,-166
2022-08-03T09:55:53.402Z,-168
2022-08-03T09:56:59.668Z,-166
2022-08-03T09:58:05.959Z,-168
2022-08-03T09:59:12.212Z,-167
2022-08-03T10:00:18.504Z,-168
2022-08-03T10:01:24.758Z,-169
2022-08-03T10:02:31.042Z,-171
2022-08-03T10:03:37.304Z,-170
2022-08-03T10:04:43.592Z,-171
2022-08-03T10:05:48.861Z,-171
2022-08-03T10:06:55.142Z,-173
2022-08-03T10:08:01.440Z,-171
2022-08-03T10:09:07.676Z,-171
2022-08-03T10:10:13.953Z,-172
2022-08-03T10:11:20.233Z,-172
2022-08-03T10:12:26.517Z,-173
2022-08-03T10:13:32.779Z,-172
2022-08-03T10:14:39.058Z,-174
2022-08-03T10:15:45.318Z,-175
2022-08-03T10:16:51.592Z,-178
2022-08-03T10:17:57.871Z,-177
2022-08-03T10:19:04.136Z,-175
2022-08-03T10:20:09.422Z,-176
2022-08-03T10:21:15.710Z,-176
2022-08-03T10:22:21.973Z,-177
2022-08-03T10:23:28.240Z,-178
2022-08-03T10:24:34.513Z,-178
2022-08-03T10:25:40.786Z,-178
2022-08-03T10:26:47.087Z,-179
2022-08-03T10:27:53.329Z,-179
2022-08-03T10:28:59.610Z,-180
2022-08-03T10:30:05.883Z,-182
2022-08-03T10:31:12.163Z,-182
2022-08-03T10:32:18.423Z,-182
2022-08-03T10:33:24.697Z,-182
2022-08-03T10:34:30.969Z,-181
2022-08-03T10:35:36.253Z,-183
2022-08-03T10:36:42.541Z,-184
2022-08-03T10:37:48.811Z,-185
2022-08-03T10:38:55.113Z,-184
2022-08-03T10:40:01.350Z,-186
2022-08-03T10:41:07.623Z,-186
2022-08-03T10:42:13.909Z,-185
2022-08-03T10:43:20.164Z,-186
2022-08-03T10:44:26.456Z,-186
2022-08-03T10:45:32.708Z,-187
2022-08-03T10:46:38.994Z,-187
2022-08-03T10:47:45.268Z,-188
2022-08-03T10:48:51.557Z,-187
2022-08-03T10:49:56.847Z,-187
2022-08-03T10:51:03.097Z,-189
2022-08-03T10:52:09.384Z,-189
2022-08-03T10:53:15.638Z,-190
2022-08-03T10:54:21.914Z,-191
2022-08-03T10:55:28.181Z,-190
2022-08-03T10:56:34.457Z,-193
2022-08-03T10:57:40.758Z,-192
2022-08-03T10:58:47.004Z,-193
2022-08-03T10:59:53.297Z,-193
2022-08-03T11:00:59.554Z,-193
2022-08-03T11:02:05.829Z,-193
2022-08-03T11:03:12.092Z,-193
2022-08-03T11:04:17.389Z,-195
2022-08-03T11:05:23.651Z,-196
2022-08-03T11:06:29.933Z,-196
2022-08-03T11:07:36.202Z,-196
2022-08-03T11:08:42.485Z,-196
2022-08-03T11:09:48.752Z,-196
2022-08-03T11:10:54.047Z,-198
2022-08-03T11:12:00.316Z,-198
2022-08-03T11:13:06.591Z,-196
2022-08-03T11:14:12.866Z,-200
2022-08-03T11:15:19.136Z,-200
2022-08-03T11:16:25.408Z,-200
2022-08-03T11:17:31.701Z,-200
2022-08-03T11:18:37.957Z,-200
2022-08-03T11:19:44.225Z,-200
2022-08-03T11:20:50.524Z,-201
2022-08-03T11:21:56.812Z,-200
2022-08-03T11:23:03.046Z,-201
2022-08-03T11:24:09.314Z,-202
2022-08-03T11:25:14.604Z,-202
2022-08-03T11:26:20.878Z,-204
2022-08-03T11:27:27.162Z,-202
2022-08-03T11:28:33.467Z,-203
2022-08-03T11:29:39.704Z,-203
2022-08-03T11:30:45.976Z,-205
2022-08-03T11:31:52.248Z,-203
2022-08-03T11:32:58.517Z,-208
2022-08-03T11:34:04.799Z,-207
2022-08-03T11:35:11.072Z,-207
2022-08-03T11:36:17.336Z,-207
2022-08-03T11:37:23.608Z,-209
2022-08-03T11:38:29.877Z,-209
2022-08-03T11:39:35.168Z,-209
2022-08-03T11:40:41.445Z,-209
2022-08-03T11:41:47.721Z,-210
2022-08-03T11:42:53.995Z,-210
2022-08-03T11:44:00.266Z,-212
2022-08-03T11:45:06.530Z,-212
2022-08-03T11:46:12.815Z,-212
2022-08-03T11:47:19.108Z,-213
2022-08-03T11:48:25.364Z,-213
2022-08-03T11:49:31.631Z,-214
2022-08-03T11:50:37.898Z,-215
2022-08-03T11:51:44.201Z,-218
2022-08-03T11:52:50.461Z,-216
2022-08-03T11:53:55.737Z,-218
2022-08-03T11:55:02.007Z,-218
2022-08-03T11:56:08.315Z,-218
2022-08-03T11:57:14.576Z,-218
2022-08-03T11:58:20.833Z,-218
2022-08-03T11:59:27.105Z,-218
2022-08-03T12:00:33.365Z,-219
2022-08-03T12:01:39.657Z,-220
2022-08-03T12:02:45.913Z,-220
2022-08-03T12:03:52.189Z,-220
2022-08-03T12:04:58.468Z,-221
2022-08-03T12:06:04.735Z,-220
2022-08-03T12:07:11.041Z,-221
2022-08-03T12:08:16.316Z,-221
2022-08-03T12:09:22.576Z,-222
2022-08-03T12:10:28.839Z,-221
2022-08-03T12:11:35.121Z,-223
2022-08-03T12:12:41.396Z,-224
2022-08-03T12:13:47.660Z,-225
2022-08-03T12:14:53.959Z,-223
2022-08-03T12:16:00.201Z,-225
2022-08-03T12:17:06.485Z,-224
2022-08-03T12:18:12.752Z,-225
2022-08-03T12:19:19.026Z,-225
2022-08-03T12:20:25.299Z,-225
2022-08-03T12:21:31.584Z,-227
2022-08-03T12:22:36.867Z,-228
2022-08-03T12:23:43.139Z,-228
2022-08-03T12:24:49.409Z,-228
2022-08-03T12:25:55.679Z,-228
2022-08-03T12:27:01.961Z,-230
2022-08-03T12:28:08.228Z,-231
2022-08-03T12:29:14.505Z,-231
2022-08-03T12:30:20.800Z,-231
2022-08-03T12:31:27.052Z,-231
2022-08-03T12:32:33.321Z,-231
2022-08-03T12:33:39.595Z,-231
2022-08-03T12:34:45.875Z,-231
2022-08-03T12:35:52.136Z,-233
2022-08-03T12:36:57.453Z,-233
2022-08-03T12:38:03.700Z,-232
2022-08-03T12:39:09.985Z,-234
2022-08-03T12:40:16.263Z,-234
2022-08-03T12:41:22.525Z,-234
2022-08-03T12:42:28.791Z,-232
2022-08-03T12:43:35.081Z,-235
2022-08-03T12:44:41.337Z,-236
2022-08-03T12:45:47.621Z,-236
2022-08-03T12:46:53.897Z,-237
2022-08-03T12:48:00.176Z,-237
2022-08-03T12:49:06.429Z,-238
2022-08-03T12:50:12.708Z,-240
2022-08-03T12:51:17.994Z,-240
2022-08-03T12:52:24.266Z,-241
2022-08-03T12:53:30.537Z,-241
2022-08-03T12:54:36.807Z,-243
2022-08-03T12:55:43.084Z,-243
2022-08-03T12:56:49.357Z,-245
2022-08-03T12:57:55.626Z,-245
2022-08-03T12:59:01.903Z,-246
2022-08-03T13:00:08.176Z,-246
2022-08-03T13:01:14.449Z,-247
2022-08-03T13:02:20.723Z,-247
2022-08-03T13:03:27.000Z,-248
2022-08-03T13:04:33.273Z,-248
2022-08-03T13:05:38.563Z,-247
2022-08-03T13:06:44.853Z,-248
2022-08-03T13:07:51.129Z,-248
2022-08-03T13:08:57.396Z,-248
2022-08-03T13:10:03.655Z,-247
2022-08-03T13:11:09.918Z,-247
2022-08-03T13:12:16.193Z,-250
2022-08-03T13:13:22.470Z,-249
2022-08-03T13:14:28.750Z,-250
2022-08-03T13:15:35.014Z,-249
2022-08-03T13:16:41.289Z,-249
2022-08-03T13:17:47.578Z,-250
2022-08-03T13:18:53.847Z,-250
2022-08-03T13:19:59.151Z,-250
2022-08-03T13:21:05.411Z,-252
2022-08-03T13:22:11.709Z,-252
2022-08-03T13:23:17.955Z,-252
2022-08-03T13:24:24.224Z,-253
2022-08-03T13:25:30.492Z,-253
2022-08-03T13:26:36.769Z,-253
2022-08-03T13:27:43.042Z,-253
2022-08-03T13:28:49.334Z,-254
2022-08-03T13:29:55.600Z,-255
2022-08-03T13:31:01.862Z,-256
2022-08-03T13:32:08.131Z,-256
2022-08-03T13:33:14.407Z,-256
2022-08-03T13:34:19.686Z,-256
2022-08-03T13:35:25.988Z,-256
2022-08-03T13:36:32.235Z,-257
2022-08-03T13:37:38.553Z,-258
2022-08-03T13:38:44.816Z,-259
2022-08-03T13:39:51.069Z,-259
2022-08-03T13:40:57.378Z,-261
2022-08-03T13:42:03.605Z,-261
2022-08-03T13:43:09.887Z,-262
2022-08-03T13:44:16.153Z,-262
2022-08-03T13:45:22.436Z,-262
2022-08-03T13:46:28.702Z,-262
2022-08-03T13:47:34.966Z,-263
2022-08-03T13:48:40.280Z,-262
2022-08-03T13:49:46.533Z,-265
2022-08-03T13:50:52.841Z,-265
2022-08-03T13:51:59.082Z,-265
2022-08-03T13:53:05.350Z,-267
2022-08-03T13:54:11.632Z,-265
2022-08-03T13:55:17.895Z,-268
2022-08-03T13:56:24.176Z,-267
2022-08-03T13:57:30.449Z,-268
2022-08-03T13:58:36.714Z,-268
2022-08-03T13:59:42.991Z,-269
2022-08-03T14:00:49.271Z,-271
2022-08-03T14:01:55.537Z,-268
2022-08-03T14:03:00.827Z,-271
2022-08-03T14:04:07.097Z,-272
2022-08-03T14:05:13.386Z,-273
2022-08-03T14:06:19.651Z,-275
2022-08-03T14:07:25.913Z,-273
2022-08-03T14:08:32.213Z,-274
2022-08-03T14:09:38.463Z,-274
2022-08-03T14:10:44.743Z,-275
2022-08-03T14:11:51.009Z,-275
2022-08-03T14:12:57.282Z,-275
2022-08-03T14:14:03.552Z,-275
2022-08-03T14:15:09.855Z,-278
2022-08-03T14:16:16.099Z,-277
2022-08-03T14:17:21.395Z,-277
2022-08-03T14:18:27.677Z,-277
2022-08-03T14:19:33.934Z,-278
2022-08-03T14:20:40.207Z,-278
2022-08-03T14:21:46.488Z,-279
2022-08-03T14:22:52.762Z,-280
2022-08-03T14:23:59.033Z,-281
2022-08-03T14:25:05.305Z,-281
2022-08-03T14:26:11.579Z,-282
2022-08-03T14:27:17.880Z,-282
2022-08-03T14:28:24.123Z,-284
2022-08-03T14:29:30.407Z,-284
2022-08-03T14:30:36.677Z,-286
2022-08-03T14:31:41.970Z,-285
2022-08-03T14:32:48.237Z,-287
2022-08-03T14:33:54.499Z,-289
2022-08-03T14:35:00.771Z,-289
2022-08-03T14:36:07.057Z,-289
2022-08-03T14:37:13.347Z,-289
2022-08-03T14:38:19.589Z,-291
2022-08-03T14:39:25.874Z,-293
2022-08-03T14:40:32.152Z,-293
2022-08-03T14:41:38.412Z,-295